Terminal Aerodrome Forecast
Issued by NWS

Home | Current Version | Previous Version | Text Only | Print | Product List | Glossary On
Versions: 1 2 3 4 5 6 7 8 9 10 11 12 13 14 15
000
FTUS45 KTFX 022343
TAFGTF
TAF
KGTF 022343Z 0300/0324 36008KT P6SM SCT050 BKN120
      TEMPO 0300/0303 VRB20G40KT TSRA BKN050CB
     FM030300 25005KT P6SM SCT050 BKN120
     FM031800 19008KT P6SM SCT050 BKN090 PROB30 0321/0324 -TSRA
      BKN050CB=

USA.gov is the U.S. government's official web portal to all federal, state and local government web resources and services.